Stena Germanica — SKPZ — position and weather

sailwx.info

Track history (hours):
 
Tides and Currents Weather Stations Pressure Air Temp Water Temp Dewpoint Dewpoint Depression Visibility Wind Speed Wind Dir Waves Ship Positions

Stena Germanica

Last reported at 2015-Mar-28 20:33 UTC. Time now 2015-Mar-28 23:57 UTC.
Position N 56°10' E 015°38'.

Length 176 m; draft 6.4 m.

Type: Passenger vessel. MMSI: 265292000.

Date/timePositionNaut miles runAvg speedWind from/ knotsBaromVisibWave heightAir tempDewpointWater temp
2015-Mar-28 20:33N 56°10' E 015°38'7 3.2
2015-Mar-28 18:21N 56°03' E 015°37'9620.0
2015-Mar-28 13:33N 55°10' E 017°59'2019.8
2015-Mar-28 12:34N 54°59' E 018°28'2019.6
2015-Mar-28 11:34N 54°45' E 018°51'1413.7
2015-Mar-28 10:33N 54°32' E 018°44'8 7.6
2015-Mar-28 09:32N 54°33' E 018°30'1 0.7
2015-Mar-28 08:33N 54°32' E 018°31'1313.4
2015-Mar-28 07:34N 54°36' E 018°53'1818.2
2015-Mar-28 06:33N 54°53' E 018°42'2019.7
2015-Mar-28 05:34N 55°04' E 018°13'11018.2
2015-Mar-27 23:33N 56°10' E 015°37'0 0.2
2015-Mar-27 22:21N 56°10' E 015°38'0 0.0
2015-Mar-27 21:31N 56°10' E 015°38'0 0.0
2015-Mar-27 20:31N 56°10' E 015°38'0 0.0
2015-Mar-27 19:27N 56°10' E 015°38'0 0.0
2015-Mar-27 18:19N 56°10' E 015°38'0 0.0
2015-Mar-27 08:05N 56°10' E 015°38'3 5.8
2015-Mar-27 07:31N 56°07' E 015°35'10815.3
2015-Mar-27 00:27N 55°06' E 018°13'1415.5
2015-Mar-26 23:33N 54°58' E 018°32'1615.6
2015-Mar-26 22:33N 54°47' E 018°51'1313.0
2015-Mar-26 21:33N 54°34' E 018°51'1212.0
2015-Mar-26 20:33N 54°33' E 018°31'0 0.2
2015-Mar-26 19:33N 54°33' E 018°30'9 8.6
2015-Mar-26 18:34N 54°32' E 018°45'1413.9
2015-Mar-26 17:33N 54°46' E 018°48'1818.2
2015-Mar-26 16:33N 54°60' E 018°27'1818.3
2015-Mar-26 15:33N 55°10' E 018°01'10016.6
2015-Mar-26 09:31N 56°10' E 015°38'0 0.2
2015-Mar-26 07:33N 56°10' E 015°38'1711.8
2015-Mar-26 06:08N 55°58' E 015°59'1415.8
2015-Mar-26 05:15N 55°52' E 016°21'2614.2
2015-Mar-26 03:24N 55°34' E 016°55'2815.0
2015-Mar-26 01:33N 55°20' E 017°37'1515.3
2015-Mar-26 00:33N 55°11' E 017°59'1515.2
2015-Mar-25 23:33N 55°02' E 018°21'1515.1
2015-Mar-25 22:33N 54°53' E 018°41'1515.3
2015-Mar-25 21:33N 54°41' E 018°58'1413.9
2015-Mar-25 20:34N 54°32' E 018°40'6 5.6
2015-Mar-25 19:32N 54°33' E 018°30'0 0.0
2015-Mar-25 18:31N 54°33' E 018°30'9 9.2
2015-Mar-25 17:33N 54°32' E 018°46'1414.1
2015-Mar-25 16:33N 54°46' E 018°50'1817.6
2015-Mar-25 15:33N 54°59' E 018°29'1817.9
2015-Mar-25 14:33N 55°10' E 018°04'10216.8
2015-Mar-25 08:30N 56°08' E 015°36'2 2.0
2015-Mar-25 07:33N 56°10' E 015°38'0 0.0
2015-Mar-25 06:33N 56°10' E 015°38'9615.9
2015-Mar-25 00:33N 55°12' E 017°53'1717.2
2015-Mar-24 23:33N 55°03' E 018°19'1716.9
2015-Mar-24 22:33N 54°52' E 018°41'1716.5
2015-Mar-24 21:33N 54°38' E 018°57'1414.2
2015-Mar-24 20:33N 54°32' E 018°35'3 2.5
2015-Mar-24 19:33N 54°33' E 018°30'0 0.0
2015-Mar-24 18:33N 54°33' E 018°30'8 7.6
2015-Mar-24 17:34N 54°32' E 018°43'1313.1
2015-Mar-24 16:34N 54°45' E 018°50'1717.1
2015-Mar-24 15:34N 54°58' E 018°31'1717.2
2015-Mar-24 14:33N 55°08' E 018°06'10416.5
2015-Mar-24 08:15N 56°09' E 015°36'85 9.8
2015-Mar-23 23:33N 55°19' E 017°38'1514.5
2015-Mar-23 22:33N 55°11' E 017°60'1414.4
2015-Mar-23 21:33N 55°03' E 018°20'1616.0
2015-Mar-23 20:33N 54°52' E 018°41'1615.9
2015-Mar-23 19:33N 54°39' E 018°57'1413.9
2015-Mar-23 18:34N 54°32' E 018°37'4 3.7
2015-Mar-23 17:34N 54°33' E 018°30'0 0.0
2015-Mar-23 16:32N 54°33' E 018°30'0 0.0
2015-Mar-23 15:29N 54°33' E 018°30'0 0.0
2015-Mar-23 14:29N 54°33' E 018°30'0 0.0
2015-Mar-23 13:29N 54°33' E 018°30'0 0.0
2015-Mar-23 12:26N 54°33' E 018°30'0 0.0
2015-Mar-23 11:29N 54°33' E 018°30'0 0.0
2015-Mar-23 10:32N 54°33' E 018°30'0 0.0
2015-Mar-23 09:32N 54°33' E 018°30'0 0.0
2015-Mar-23 08:32N 54°33' E 018°30'2 1.9
2015-Mar-23 07:32N 54°32' E 018°33'1212.5
2015-Mar-23 06:33N 54°36' E 018°54'1413.9
2015-Mar-23 05:33N 54°50' E 018°50'1515.3
2015-Mar-23 04:33N 54°60' E 018°30'1515.0
2015-Mar-23 03:33N 55°08' E 018°08'2015.1
2015-Mar-23 02:12N 55°17' E 017°36'27 1.8
2015-Mar-22 11:30N 55°04' E 018°17'1516.2
2015-Mar-22 10:34N 54°54' E 018°38'1616.4
2015-Mar-22 09:34N 54°42' E 018°56'1413.5
2015-Mar-22 08:33N 54°32' E 018°40'6 5.7
2015-Mar-22 07:31N 54°33' E 018°30'0 0.0
2015-Mar-22 06:34N 54°33' E 018°30'1110.9
2015-Mar-22 05:34N 54°33' E 018°49'1615.9
2015-Mar-22 04:34N 54°49' E 018°46'1717.4
2015-Mar-22 03:33N 54°60' E 018°23'1716.9
2015-Mar-22 02:33N 55°07' E 017°56'16 1.0
2015-Mar-21 11:11N 55°06' E 018°24'1319.9
2015-Mar-21 10:34N 54°57' E 018°39'1818.5
2015-Mar-21 09:34N 54°42' E 018°58'1515.4
2015-Mar-21 08:34N 54°32' E 018°38'5 4.6
2015-Mar-21 07:33N 54°33' E 018°30'0 0.0
2015-Mar-21 06:34N 54°33' E 018°30'8 8.0
2015-Mar-21 05:33N 54°32' E 018°44'1211.8
2015-Mar-21 04:34N 54°42' E 018°55'1413.9
2015-Mar-21 03:33N 54°53' E 018°40'1413.8
2015-Mar-21 02:33N 55°03' E 018°22'1513.8
2015-Mar-21 01:30N 55°11' E 018°01'95 5.2
2015-Mar-20 07:10N 56°02' E 015°39'1215.1
2015-Mar-20 06:24N 55°56' E 015°57'3315.3
2015-Mar-20 04:13N 55°38' E 016°47'1215.3
2015-Mar-20 03:27N 55°32' E 017°04'1315.1
2015-Mar-20 02:34N 55°24' E 017°24'1515.2
2015-Mar-20 01:33N 55°16' E 017°46'1515.3
2015-Mar-20 00:33N 55°07' E 018°08'1716.6
2015-Mar-19 23:33N 54°58' E 018°32'1616.0
2015-Mar-19 22:34N 54°46' E 018°50'1313.2
2015-Mar-19 21:34N 54°32' E 018°49'1110.8
2015-Mar-19 20:32N 54°33' E 018°30'0 0.0
2015-Mar-19 19:34N 54°33' E 018°30'9 8.7
2015-Mar-19 18:33N 54°32' E 018°45'1413.5
2015-Mar-19 17:33N 54°46' E 018°50'1717.4
2015-Mar-19 16:33N 54°58' E 018°30'1717.3
2015-Mar-19 15:33N 55°09' E 018°06'10317.1
2015-Mar-19 09:33N 56°06' E 015°34'0 0.0
2015-Mar-19 07:15N 56°06' E 015°34'1013.8
2015-Mar-19 06:33N 55°59' E 015°47'1914.9
2015-Mar-19 05:18N 55°50' E 016°16'6014.9
2015-Mar-19 01:17N 55°16' E 017°43'1115.0
2015-Mar-19 00:33N 55°10' E 017°59'1514.9
2015-Mar-18 23:33N 55°02' E 018°21'1514.9
2015-Mar-18 22:33N 54°53' E 018°41'1514.9
2015-Mar-18 21:33N 54°41' E 018°57'1312.7
2015-Mar-18 20:34N 54°32' E 018°42'  
Track history (hours):
 
Tides and Currents Weather Stations Pressure Air Temp Water Temp Dewpoint Dewpoint Depression Visibility Wind Speed Wind Dir Waves Ship Positions

Stena Germanica

Last reported at 2015-Mar-28 20:33 UTC. Time now 2015-Mar-28 23:57 UTC.
Position N 56°10' E 015°38'.

Length 176 m; draft 6.4 m.

Type: Passenger vessel. MMSI: 265292000.

Date/timePositionNaut miles runAvg speedWind from/ knotsBaromVisibWave heightAir tempDewpointWater temp
2015-Mar-28 20:33N 56°10' E 015°38'7 3.2
2015-Mar-28 18:21N 56°03' E 015°37'9620.0
2015-Mar-28 13:33N 55°10' E 017°59'2019.8
2015-Mar-28 12:34N 54°59' E 018°28'2019.6
2015-Mar-28 11:34N 54°45' E 018°51'1413.7
2015-Mar-28 10:33N 54°32' E 018°44'8 7.6
2015-Mar-28 09:32N 54°33' E 018°30'1 0.7
2015-Mar-28 08:33N 54°32' E 018°31'1313.4
2015-Mar-28 07:34N 54°36' E 018°53'1818.2
2015-Mar-28 06:33N 54°53' E 018°42'2019.7
2015-Mar-28 05:34N 55°04' E 018°13'11018.2
2015-Mar-27 23:33N 56°10' E 015°37'0 0.2
2015-Mar-27 22:21N 56°10' E 015°38'0 0.0
2015-Mar-27 21:31N 56°10' E 015°38'0 0.0
2015-Mar-27 20:31N 56°10' E 015°38'0 0.0
2015-Mar-27 19:27N 56°10' E 015°38'0 0.0
2015-Mar-27 18:19N 56°10' E 015°38'0 0.0
2015-Mar-27 08:05N 56°10' E 015°38'3 5.8
2015-Mar-27 07:31N 56°07' E 015°35'10815.3
2015-Mar-27 00:27N 55°06' E 018°13'1415.5
2015-Mar-26 23:33N 54°58' E 018°32'1615.6
2015-Mar-26 22:33N 54°47' E 018°51'1313.0
2015-Mar-26 21:33N 54°34' E 018°51'1212.0
2015-Mar-26 20:33N 54°33' E 018°31'0 0.2
2015-Mar-26 19:33N 54°33' E 018°30'9 8.6
2015-Mar-26 18:34N 54°32' E 018°45'1413.9
2015-Mar-26 17:33N 54°46' E 018°48'1818.2
2015-Mar-26 16:33N 54°60' E 018°27'1818.3
2015-Mar-26 15:33N 55°10' E 018°01'10016.6
2015-Mar-26 09:31N 56°10' E 015°38'0 0.2
2015-Mar-26 07:33N 56°10' E 015°38'1711.8
2015-Mar-26 06:08N 55°58' E 015°59'1415.8
2015-Mar-26 05:15N 55°52' E 016°21'2614.2
2015-Mar-26 03:24N 55°34' E 016°55'2815.0
2015-Mar-26 01:33N 55°20' E 017°37'1515.3
2015-Mar-26 00:33N 55°11' E 017°59'1515.2
2015-Mar-25 23:33N 55°02' E 018°21'1515.1
2015-Mar-25 22:33N 54°53' E 018°41'1515.3
2015-Mar-25 21:33N 54°41' E 018°58'1413.9
2015-Mar-25 20:34N 54°32' E 018°40'6 5.6
2015-Mar-25 19:32N 54°33' E 018°30'0 0.0
2015-Mar-25 18:31N 54°33' E 018°30'9 9.2
2015-Mar-25 17:33N 54°32' E 018°46'1414.1
2015-Mar-25 16:33N 54°46' E 018°50'1817.6
2015-Mar-25 15:33N 54°59' E 018°29'1817.9
2015-Mar-25 14:33N 55°10' E 018°04'10216.8
2015-Mar-25 08:30N 56°08' E 015°36'2 2.0
2015-Mar-25 07:33N 56°10' E 015°38'0 0.0
2015-Mar-25 06:33N 56°10' E 015°38'9615.9
2015-Mar-25 00:33N 55°12' E 017°53'1717.2
2015-Mar-24 23:33N 55°03' E 018°19'1716.9
2015-Mar-24 22:33N 54°52' E 018°41'1716.5
2015-Mar-24 21:33N 54°38' E 018°57'1414.2
2015-Mar-24 20:33N 54°32' E 018°35'3 2.5
2015-Mar-24 19:33N 54°33' E 018°30'0 0.0
2015-Mar-24 18:33N 54°33' E 018°30'8 7.6
2015-Mar-24 17:34N 54°32' E 018°43'1313.1
2015-Mar-24 16:34N 54°45' E 018°50'1717.1
2015-Mar-24 15:34N 54°58' E 018°31'1717.2
2015-Mar-24 14:33N 55°08' E 018°06'10416.5
2015-Mar-24 08:15N 56°09' E 015°36'85 9.8
2015-Mar-23 23:33N 55°19' E 017°38'1514.5
2015-Mar-23 22:33N 55°11' E 017°60'1414.4
2015-Mar-23 21:33N 55°03' E 018°20'1616.0
2015-Mar-23 20:33N 54°52' E 018°41'1615.9
2015-Mar-23 19:33N 54°39' E 018°57'1413.9
2015-Mar-23 18:34N 54°32' E 018°37'4 3.7
2015-Mar-23 17:34N 54°33' E 018°30'0 0.0
2015-Mar-23 16:32N 54°33' E 018°30'0 0.0
2015-Mar-23 15:29N 54°33' E 018°30'0 0.0
2015-Mar-23 14:29N 54°33' E 018°30'0 0.0
2015-Mar-23 13:29N 54°33' E 018°30'0 0.0
2015-Mar-23 12:26N 54°33' E 018°30'0 0.0
2015-Mar-23 11:29N 54°33' E 018°30'0 0.0
2015-Mar-23 10:32N 54°33' E 018°30'0 0.0
2015-Mar-23 09:32N 54°33' E 018°30'0 0.0
2015-Mar-23 08:32N 54°33' E 018°30'2 1.9
2015-Mar-23 07:32N 54°32' E 018°33'1212.5
2015-Mar-23 06:33N 54°36' E 018°54'1413.9
2015-Mar-23 05:33N 54°50' E 018°50'1515.3
2015-Mar-23 04:33N 54°60' E 018°30'1515.0
2015-Mar-23 03:33N 55°08' E 018°08'2015.1
2015-Mar-23 02:12N 55°17' E 017°36'27 1.8
2015-Mar-22 11:30N 55°04' E 018°17'1516.2
2015-Mar-22 10:34N 54°54' E 018°38'1616.4
2015-Mar-22 09:34N 54°42' E 018°56'1413.5
2015-Mar-22 08:33N 54°32' E 018°40'6 5.7
2015-Mar-22 07:31N 54°33' E 018°30'0 0.0
2015-Mar-22 06:34N 54°33' E 018°30'1110.9
2015-Mar-22 05:34N 54°33' E 018°49'1615.9
2015-Mar-22 04:34N 54°49' E 018°46'1717.4
2015-Mar-22 03:33N 54°60' E 018°23'1716.9
2015-Mar-22 02:33N 55°07' E 017°56'16 1.0
2015-Mar-21 11:11N 55°06' E 018°24'1319.9
2015-Mar-21 10:34N 54°57' E 018°39'1818.5
2015-Mar-21 09:34N 54°42' E 018°58'1515.4
2015-Mar-21 08:34N 54°32' E 018°38'5 4.6
2015-Mar-21 07:33N 54°33' E 018°30'0 0.0
2015-Mar-21 06:34N 54°33' E 018°30'8 8.0
2015-Mar-21 05:33N 54°32' E 018°44'1211.8
2015-Mar-21 04:34N 54°42' E 018°55'1413.9
2015-Mar-21 03:33N 54°53' E 018°40'1413.8
2015-Mar-21 02:33N 55°03' E 018°22'1513.8
2015-Mar-21 01:30N 55°11' E 018°01'95 5.2
2015-Mar-20 07:10N 56°02' E 015°39'1215.1
2015-Mar-20 06:24N 55°56' E 015°57'3315.3
2015-Mar-20 04:13N 55°38' E 016°47'1215.3
2015-Mar-20 03:27N 55°32' E 017°04'1315.1
2015-Mar-20 02:34N 55°24' E 017°24'1515.2
2015-Mar-20 01:33N 55°16' E 017°46'1515.3
2015-Mar-20 00:33N 55°07' E 018°08'1716.6
2015-Mar-19 23:33N 54°58' E 018°32'1616.0
2015-Mar-19 22:34N 54°46' E 018°50'1313.2
2015-Mar-19 21:34N 54°32' E 018°49'1110.8
2015-Mar-19 20:32N 54°33' E 018°30'0 0.0
2015-Mar-19 19:34N 54°33' E 018°30'9 8.7
2015-Mar-19 18:33N 54°32' E 018°45'1413.5
2015-Mar-19 17:33N 54°46' E 018°50'1717.4
2015-Mar-19 16:33N 54°58' E 018°30'1717.3
2015-Mar-19 15:33N 55°09' E 018°06'10317.1
2015-Mar-19 09:33N 56°06' E 015°34'0 0.0
2015-Mar-19 07:15N 56°06' E 015°34'1013.8
2015-Mar-19 06:33N 55°59' E 015°47'1914.9
2015-Mar-19 05:18N 55°50' E 016°16'6014.9
2015-Mar-19 01:17N 55°16' E 017°43'1115.0
2015-Mar-19 00:33N 55°10' E 017°59'1514.9
2015-Mar-18 23:33N 55°02' E 018°21'1514.9
2015-Mar-18 22:33N 54°53' E 018°41'1514.9
2015-Mar-18 21:33N 54°41' E 018°57'1312.7
2015-Mar-18 20:34N 54°32' E 018°42'  

Dump ship's entire track history